Time;durP1;ratioP1;P1;durP2;ratioP2;P2;SDS_P1;SDS_P2;PMS_P1;PMS_P2;Temp;Humidity;BMP_temperature;BMP_pressure;BME280_temperature;BME280_humidity;BME280_pressure;Samples;Min_cycle;Max_cycle;Signal;HPM_P1;HPM_P2
2021/11/06 00:00:18;;;;;;;13.40;6.15;;;;;;;12.76;59.25;102060.78;4956232;28;100351;-79
2021/11/06 00:02:45;;;;;;;14.25;6.13;;;;;;;11.87;60.87;102064.53;4954836;28;98927;-79
2021/11/06 00:05:12;;;;;;;11.75;5.82;;;;;;;12.54;59.91;102054.22;4956499;28;96804;-79
2021/11/06 00:07:39;;;;;;;13.98;6.22;;;;;;;12.59;59.45;102069.16;4957571;28;96952;-79
2021/11/06 00:10:07;;;;;;;9.52;5.70;;;;;;;12.58;59.72;102063.88;4957413;28;97064;-79
2021/11/06 00:12:34;;;;;;;12.10;5.63;;;;;;;12.68;59.28;102068.03;4950273;28;97560;-79
2021/11/06 00:15:01;;;;;;;9.90;5.57;;;;;;;12.77;59.00;102075.78;4962846;28;96736;-79
2021/11/06 00:17:29;;;;;;;14.55;6.07;;;;;;;12.60;59.63;102070.88;4958396;28;97382;-79
2021/11/06 00:19:56;;;;;;;13.52;5.60;;;;;;;12.27;61.11;102079.59;4960558;28;99580;-77
2021/11/06 00:22:22;;;;;;;10.60;5.82;;;;;;;12.76;59.37;102074.03;4958956;28;99533;-78
2021/11/06 00:24:49;;;;;;;12.32;5.63;;;;;;;12.84;59.00;102072.09;4956657;28;96807;-80
2021/11/06 00:27:16;;;;;;;10.65;5.85;;;;;;;12.81;59.20;102074.81;4956911;28;97196;-80
2021/11/06 00:29:42;;;;;;;17.23;5.97;;;;;;;12.73;59.19;102076.78;4958030;28;98844;-79
2021/11/06 00:32:09;;;;;;;15.02;6.38;;;;;;;12.76;58.48;102071.41;4959265;28;98790;-78
2021/11/06 00:34:37;;;;;;;17.13;6.47;;;;;;;12.87;59.17;102079.97;4958817;28;96835;-79
2021/11/06 00:37:05;;;;;;;10.88;5.60;;;;;;;12.53;60.06;102081.69;4957650;28;96842;-79
2021/11/06 00:39:31;;;;;;;11.45;6.10;;;;;;;12.81;59.47;102074.81;4949087;28;101597;-79
2021/11/06 00:41:58;;;;;;;12.95;6.53;;;;;;;12.57;60.20;102078.03;4961307;28;100469;-78
2021/11/06 00:44:24;;;;;;;19.73;6.07;;;;;;;12.75;59.72;102075.81;4962258;28;96942;-79
2021/11/06 00:46:51;;;;;;;12.70;6.05;;;;;;;12.89;59.10;102062.22;4950632;28;97292;-80
2021/11/06 00:49:18;;;;;;;12.40;5.97;;;;;;;13.00;58.47;102072.56;4953351;28;97835;-80
2021/11/06 00:51:46;;;;;;;14.63;5.50;;;;;;;12.71;59.16;102074.16;4952841;28;98878;-79
2021/11/06 00:54:12;;;;;;;15.38;6.05;;;;;;;12.96;58.65;102079.75;4954380;28;96712;-80
2021/11/06 00:56:39;;;;;;;13.05;6.60;;;;;;;12.84;58.73;102069.44;4949547;28;96995;-78
2021/11/06 00:59:05;;;;;;;15.02;6.70;;;;;;;12.43;60.28;102083.63;4953037;28;99351;-78
2021/11/06 01:01:32;;;;;;;14.63;6.38;;;;;;;12.63;60.10;102080.53;4953438;28;97685;-79
2021/11/06 01:03:59;;;;;;;14.88;5.95;;;;;;;12.63;60.18;102093.81;4955513;28;96669;-80
2021/11/06 01:06:25;;;;;;;13.18;6.35;;;;;;;12.64;60.16;102083.16;4954647;28;98598;-79
2021/11/06 01:08:53;;;;;;;13.68;6.30;;;;;;;12.57;59.55;102089.50;4953692;28;99350;-80
2021/11/06 01:11:20;;;;;;;15.80;6.50;;;;;;;12.88;59.19;102096.75;4948136;28;98319;-80
2021/11/06 01:13:46;;;;;;;16.52;6.63;;;;;;;12.95;58.82;102088.63;4950162;28;96787;-80
2021/11/06 01:16:13;;;;;;;16.92;6.25;;;;;;;13.20;58.30;102077.41;4954251;28;97434;-80
2021/11/06 01:18:40;;;;;;;13.70;5.95;;;;;;;13.14;58.30;102073.16;4952098;28;99213;-80
2021/11/06 01:21:06;;;;;;;15.32;6.53;;;;;;;12.93;58.52;102085.13;4953369;28;98976;-79
2021/11/06 01:23:33;;;;;;;16.10;6.57;;;;;;;12.81;59.20;102089.84;4951758;28;97415;-79
2021/11/06 01:26:02;;;;;;;16.23;6.93;;;;;;;12.75;59.17;102085.56;4952931;28;96852;-79
2021/11/06 01:28:28;;;;;;;11.18;7.10;;;;;;;12.86;59.26;102088.84;4952120;28;99215;-79
2021/11/06 01:30:55;;;;;;;13.75;6.32;;;;;;;13.16;58.37;102088.13;4954541;28;98834;-79
2021/11/06 01:33:21;;;;;;;11.02;6.82;;;;;;;13.17;57.79;102094.31;4949418;28;96710;-79
2021/11/06 01:35:48;;;;;;;12.55;6.68;;;;;;;13.18;57.96;102085.44;4948323;28;98043;-79
2021/11/06 01:38:14;;;;;;;13.20;6.47;;;;;;;13.09;58.51;102096.25;4946957;28;99008;-80
2021/11/06 01:40:42;;;;;;;17.10;6.45;;;;;;;13.12;58.09;102094.44;4953777;28;98868;-80
2021/11/06 01:43:10;;;;;;;14.98;6.20;;;;;;;13.25;57.40;102095.00;4952995;28;96978;-79
2021/11/06 01:45:37;;;;;;;18.80;7.00;;;;;;;13.20;58.13;102096.88;4949867;28;96772;-79
2021/11/06 01:48:03;;;;;;;17.45;7.20;;;;;;;13.23;58.16;102098.59;4951837;28;99053;-80
2021/11/06 01:50:30;;;;;;;12.63;5.97;;;;;;;13.28;57.85;102107.31;4952520;28;98151;-79
2021/11/06 01:52:56;;;;;;;17.92;7.10;;;;;;;13.34;57.63;102099.19;4952487;28;97334;-79
2021/11/06 01:55:23;;;;;;;17.13;6.57;;;;;;;13.34;57.68;102099.19;4954558;28;97269;-79
2021/11/06 01:57:50;;;;;;;14.13;6.55;;;;;;;13.22;57.63;102092.41;4951556;28;99113;-79
2021/11/06 02:00:21;;;;;;;16.33;6.90;;;;;;;13.23;57.60;102094.16;4953303;28;99002;-79
2021/11/06 02:02:48;;;;;;;15.13;6.63;;;;;;;13.01;58.84;102106.16;4947049;28;98967;-79
2021/11/06 02:05:16;;;;;;;16.85;6.70;;;;;;;12.96;59.18;102093.03;4952358;28;97601;-79
2021/11/06 02:07:43;;;;;;;15.90;6.65;;;;;;;13.31;58.09;102089.53;4952286;28;99271;-78
2021/11/06 02:10:10;;;;;;;20.60;6.57;;;;;;;13.31;57.44;102086.00;4952722;28;99255;-78
2021/11/06 02:12:37;;;;;;;16.23;7.40;;;;;;;13.09;57.94;102094.47;4952853;28;97385;-79
2021/11/06 02:15:05;;;;;;;13.40;7.07;;;;;;;12.98;58.78;102088.56;4953871;28;96931;-79
2021/11/06 02:17:33;;;;;;;15.90;6.80;;;;;;;13.01;59.13;102091.13;4952773;28;99403;-79
2021/11/06 02:19:59;;;;;;;20.45;8.10;;;;;;;13.22;58.04;102086.22;4953738;28;101931;-80
2021/11/06 02:22:30;;;;;;;18.27;7.38;;;;;;;13.27;57.39;102090.50;4953819;28;96796;-79
2021/11/06 02:24:57;;;;;;;15.73;7.03;;;;;;;13.34;57.57;102077.94;4948666;28;97068;-80
2021/11/06 02:27:24;;;;;;;20.95;7.78;;;;;;;13.20;57.32;102080.06;4953148;28;99453;-80
2021/11/06 02:29:51;;;;;;;17.08;7.45;;;;;;;12.98;58.48;102098.28;4953016;28;98863;-79
2021/11/06 02:32:17;;;;;;;17.65;7.20;;;;;;;13.13;57.41;102089.97;4953693;28;96858;-80
2021/11/06 02:34:44;;;;;;;16.17;7.28;;;;;;;13.18;58.10;102088.09;4956329;28;96836;-80
2021/11/06 02:37:11;;;;;;;14.75;7.15;;;;;;;12.93;58.75;102095.72;4952946;28;101504;-79
2021/11/06 02:39:38;;;;;;;23.02;7.88;;;;;;;12.67;59.01;102080.44;4954574;28;99361;-79
2021/11/06 02:42:08;;;;;;;16.23;7.53;;;;;;;13.15;58.54;102091.69;4956465;28;96882;-79
2021/11/06 02:44:36;;;;;;;22.77;7.93;;;;;;;13.10;58.17;102088.25;4955612;28;96820;-79
2021/11/06 02:47:03;;;;;;;22.95;8.35;;;;;;;13.11;58.04;102086.47;4952379;28;99039;-79
2021/11/06 02:49:29;;;;;;;18.13;7.63;;;;;;;13.02;58.17;102095.53;4952319;28;99339;-79
2021/11/06 02:51:56;;;;;;;16.85;7.32;;;;;;;12.97;57.86;102099.19;4952315;28;96940;-79
2021/11/06 02:54:22;;;;;;;18.63;7.70;;;;;;;13.02;58.19;102094.66;4953560;28;97026;-79
2021/11/06 02:56:50;;;;;;;19.08;7.95;;;;;;;12.46;59.46;102106.56;4951198;28;98999;-78
2021/11/06 02:59:17;;;;;;;19.42;8.02;;;;;;;12.87;59.20;102101.19;4954674;28;99224;-78
2021/11/06 03:01:43;;;;;;;20.42;7.65;;;;;;;12.83;57.91;102099.53;4952317;28;97043;-78
2021/11/06 03:04:12;;;;;;;19.15;8.35;;;;;;;12.71;59.87;102099.81;4951273;28;96870;-78
2021/11/06 03:06:38;;;;;;;20.23;7.70;;;;;;;13.01;58.85;102098.19;4954967;28;100066;-78
2021/11/06 03:09:06;;;;;;;21.15;8.27;;;;;;;12.70;58.93;102101.59;4953861;28;97926;-81
2021/11/06 03:11:34;;;;;;;16.80;7.85;;;;;;;12.94;58.61;102107.22;4954350;28;97061;-78
2021/11/06 03:14:04;;;;;;;19.40;8.77;;;;;;;13.11;58.20;102099.75;4952513;28;96791;-79
2021/11/06 03:16:31;;;;;;;20.98;8.00;;;;;;;13.31;57.54;102096.63;4951132;28;99484;-78
2021/11/06 03:18:57;;;;;;;20.17;8.13;;;;;;;12.96;58.15;102098.31;4951241;28;97927;-79
2021/11/06 03:21:27;;;;;;;24.13;7.70;;;;;;;12.94;58.36;102105.44;4934897;28;97208;-79
2021/11/06 03:23:53;;;;;;;21.50;8.48;;;;;;;13.01;58.22;102104.38;4952987;28;97434;-78
2021/11/06 03:26:20;;;;;;;20.73;8.23;;;;;;;12.97;58.53;102116.00;4945275;28;101226;-79
2021/11/06 03:28:46;;;;;;;20.75;8.60;;;;;;;13.27;57.62;102106.44;4952816;28;98891;-79
2021/11/06 03:31:14;;;;;;;19.92;8.30;;;;;;;13.16;57.89;102106.72;4954082;28;97233;-80
2021/11/06 03:33:41;;;;;;;18.42;7.38;;;;;;;13.22;57.15;102104.81;4951921;28;96804;-79
2021/11/06 03:36:07;;;;;;;20.77;7.53;;;;;;;13.14;57.72;102116.47;4952028;28;99189;-79
2021/11/06 03:38:34;;;;;;;24.13;7.95;;;;;;;13.21;57.37;102113.66;4954005;28;98894;-80
2021/11/06 03:41:00;;;;;;;18.65;7.80;;;;;;;13.35;57.01;102114.19;4957954;28;96695;-79
2021/11/06 03:43:27;;;;;;;19.63;7.57;;;;;;;13.29;56.84;102114.38;4966300;28;97220;-80
2021/11/06 03:45:53;;;;;;;17.58;7.28;;;;;;;13.35;57.19;102109.78;4955076;28;98290;-80
2021/11/06 03:48:21;;;;;;;18.27;7.28;;;;;;;13.36;55.87;102111.53;4959542;28;97687;-80
2021/11/06 03:50:48;;;;;;;20.35;7.57;;;;;;;12.91;58.04;102123.22;4968922;28;96916;-78
2021/11/06 03:53:14;;;;;;;20.67;7.60;;;;;;;12.37;58.37;102116.47;4965567;28;96816;-79
2021/11/06 03:55:41;;;;;;;18.83;7.22;;;;;;;12.62;59.48;102123.88;4952051;28;99242;-79
2021/11/06 03:58:07;;;;;;;17.65;7.05;;;;;;;12.88;58.38;102118.84;4940611;28;98842;-79
2021/11/06 04:00:34;;;;;;;22.58;7.68;;;;;;;12.72;58.74;102128.09;4949848;28;96842;-79
2021/11/06 04:03:01;;;;;;;16.65;6.97;;;;;;;13.08;57.97;102131.66;4954377;28;96789;-79
2021/11/06 04:05:28;;;;;;;23.20;8.25;;;;;;;12.99;57.90;102122.16;4949928;28;98959;-79
2021/11/06 04:10:36;;;;;;;15.65;6.57;;;;;;;12.91;57.84;102123.22;4958346;28;97730;-79
2021/11/06 04:13:02;;;;;;;17.60;6.82;;;;;;;12.89;58.21;102130.34;4953086;28;96852;-80
2021/11/06 04:15:29;;;;;;;20.02;6.45;;;;;;;13.13;57.92;102130.66;4945452;28;99315;-80
2021/11/06 04:17:56;;;;;;;26.92;7.32;;;;;;;12.55;59.15;102135.50;4950003;28;99182;-79
2021/11/06 04:20:23;;;;;;;15.85;6.65;;;;;;;13.03;57.87;102134.41;4955193;28;97550;-79
2021/11/06 04:22:51;;;;;;;13.70;6.38;;;;;;;12.94;58.06;102134.63;4955425;28;96938;-80
2021/11/06 04:25:18;;;;;;;20.27;6.70;;;;;;;13.17;57.66;102142.09;4949074;28;99211;-78
2021/11/06 04:27:48;;;;;;;16.17;6.28;;;;;;;13.46;56.86;102134.25;4956018;28;98856;-78
2021/11/06 04:30:15;;;;;;;22.92;6.35;;;;;;;13.30;57.11;102142.66;4938127;28;96709;-78
2021/11/06 04:32:42;;;;;;;14.65;5.88;;;;;;;13.48;56.41;102140.41;4944191;28;96926;-79
2021/11/06 04:35:09;;;;;;;17.95;6.10;;;;;;;13.11;57.25;102148.38;4956624;28;97813;-78
2021/11/06 04:37:36;;;;;;;17.55;5.43;;;;;;;13.13;56.95;102141.28;4955341;28;98601;-78
2021/11/06 04:40:06;;;;;;;20.52;6.47;;;;;;;13.33;57.11;102148.75;4956966;28;98005;-79
2021/11/06 04:42:32;;;;;;;18.30;5.65;;;;;;;13.40;56.72;102139.72;4961896;28;98560;-79
2021/11/06 04:44:59;;;;;;;13.15;4.53;;;;;;;13.32;56.99;102140.84;4958174;28;97072;-79
2021/11/06 04:47:25;;;;;;;16.60;5.60;;;;;;;13.25;57.07;102133.94;4963389;28;98002;-80
2021/11/06 04:49:52;;;;;;;17.48;5.30;;;;;;;13.24;57.17;102142.81;4966734;28;96661;-80
2021/11/06 04:52:19;;;;;;;18.90;5.20;;;;;;;13.08;57.43;102132.53;4967553;28;98158;-79
2021/11/06 04:54:45;;;;;;;11.50;4.63;;;;;;;13.25;56.92;102139.25;4968756;28;97749;-78
2021/11/06 04:57:13;;;;;;;14.43;4.47;;;;;;;13.37;56.31;102130.97;4967312;28;98839;-77
2021/11/06 04:59:40;;;;;;;12.30;4.60;;;;;;;13.07;57.14;102129.91;4967238;28;97602;-78
2021/11/06 05:02:06;;;;;;;10.85;4.22;;;;;;;13.30;57.01;102124.06;4968023;28;96673;-79
2021/11/06 05:04:33;;;;;;;15.13;4.93;;;;;;;13.24;56.40;102121.56;4975300;28;98118;-79
2021/11/06 05:07:00;;;;;;;12.63;4.55;;;;;;;13.05;56.35;102123.78;4975024;28;96783;-80
2021/11/06 05:09:26;;;;;;;13.02;4.57;;;;;;;13.22;56.65;102118.94;4974641;28;96678;-81
2021/11/06 05:11:53;;;;;;;13.00;4.00;;;;;;;13.24;56.71;102118.91;4969101;28;97105;-80
2021/11/06 05:14:21;;;;;;;9.77;4.22;;;;;;;13.05;56.85;102115.81;4973005;28;97807;-80
2021/11/06 05:16:49;;;;;;;9.10;3.45;;;;;;;12.94;57.26;102120.47;4970030;28;96552;-80
2021/11/06 05:19:15;;;;;;;12.02;3.53;;;;;;;12.82;57.81;102113.69;4969804;28;97200;-77
2021/11/06 05:21:42;;;;;;;14.07;3.40;;;;;;;12.99;57.26;102116.84;4972071;28;96878;-79
2021/11/06 05:24:10;;;;;;;10.93;3.78;;;;;;;13.02;57.29;102114.09;4973438;28;97169;-79
2021/11/06 05:26:38;;;;;;;9.65;3.50;;;;;;;13.14;56.73;102131.53;4973704;28;98286;-79
2021/11/06 05:29:09;;;;;;;13.50;3.08;;;;;;;13.03;56.86;102117.63;4968273;28;95994;-79
2021/11/06 05:31:38;;;;;;;9.85;3.58;;;;;;;13.21;56.27;102126.94;4970656;28;96704;-79
2021/11/06 05:34:05;;;;;;;12.32;3.08;;;;;;;13.05;56.43;102123.78;4958907;28;100483;-79
2021/11/06 05:36:32;;;;;;;10.30;3.95;;;;;;;12.69;57.83;102114.88;4958660;28;99183;-78
2021/11/06 05:38:58;;;;;;;13.68;3.90;;;;;;;12.81;57.62;102122.56;4964436;28;97171;-79
2021/11/06 05:41:25;;;;;;;15.82;3.95;;;;;;;12.89;57.41;102123.25;4969562;28;96649;-78
2021/11/06 05:43:51;;;;;;;7.57;3.10;;;;;;;12.85;57.43;102124.25;4966205;28;97836;-78
2021/11/06 05:46:18;;;;;;;17.80;3.88;;;;;;;13.05;56.71;102129.09;4964928;28;98866;-80
2021/11/06 05:48:45;;;;;;;11.25;3.53;;;;;;;13.07;56.17;102133.44;4967349;28;96701;-79
2021/11/06 05:51:12;;;;;;;14.65;3.45;;;;;;;13.10;56.30;102130.72;4963599;28;97120;-78
2021/11/06 05:53:38;;;;;;;14.30;3.67;;;;;;;12.83;57.10;102126.06;4959521;28;97631;-79
2021/11/06 05:56:05;;;;;;;13.60;3.58;;;;;;;12.86;56.75;102131.31;4965487;28;98908;-78
2021/11/06 05:58:32;;;;;;;14.60;3.45;;;;;;;13.17;56.47;102134.13;4954184;28;96791;-78
2021/11/06 06:00:58;;;;;;;7.93;3.28;;;;;;;13.12;56.61;102138.66;4962383;28;96573;-80
2021/11/06 06:03:25;;;;;;;9.00;3.58;;;;;;;13.36;55.76;102135.41;4970922;28;97823;-79
2021/11/06 06:05:53;;;;;;;29.52;4.45;;;;;;;13.49;55.14;102151.91;4970215;28;97792;-78
2021/11/06 06:08:19;;;;;;;11.52;3.42;;;;;;;13.36;55.38;102135.41;4966945;28;96860;-77
2021/11/06 06:10:46;;;;;;;12.93;3.47;;;;;;;13.30;55.78;102158.59;4972113;28;96823;-78
2021/11/06 06:13:12;;;;;;;8.48;3.40;;;;;;;13.23;56.11;102146.38;4954583;28;99321;-79
2021/11/06 06:15:39;;;;;;;14.48;4.15;;;;;;;13.26;55.93;102151.63;4963260;28;97870;-79
2021/11/06 06:18:06;;;;;;;12.93;3.72;;;;;;;13.35;55.50;102149.59;4966944;28;96653;-80
2021/11/06 06:20:32;;;;;;;11.63;3.55;;;;;;;13.55;54.92;102138.47;4973486;28;97823;-80
2021/11/06 06:23:00;;;;;;;14.35;3.88;;;;;;;13.06;56.25;102154.72;4966300;28;99690;-79
2021/11/06 06:25:28;;;;;;;13.98;3.92;;;;;;;13.19;56.07;102155.31;4954355;28;97738;-78
2021/11/06 06:27:54;;;;;;;10.13;3.65;;;;;;;13.40;55.45;102149.47;4968016;28;96599;-78
2021/11/06 06:30:21;;;;;;;9.50;3.55;;;;;;;13.52;55.24;102155.34;4969127;28;96452;-78
2021/11/06 06:32:48;;;;;;;7.63;3.83;;;;;;;13.42;55.40;102160.94;4969701;28;98518;-79
2021/11/06 06:35:16;;;;;;;9.10;3.80;;;;;;;13.30;55.94;102155.94;4959613;28;98343;-79
2021/11/06 06:37:43;;;;;;;9.88;4.03;;;;;;;13.29;55.54;102172.75;4962377;28;96531;-79
2021/11/06 06:40:13;;;;;;;11.40;4.07;;;;;;;13.39;54.69;102169.00;4966099;28;97772;-79
2021/11/06 06:42:40;;;;;;;10.32;3.83;;;;;;;13.64;54.66;102175.44;4965614;28;96972;-80
2021/11/06 06:45:07;;;;;;;9.60;3.85;;;;;;;13.63;54.46;102173.69;4965574;28;97990;-78
2021/11/06 06:47:34;;;;;;;13.50;3.90;;;;;;;13.64;54.87;102178.09;4970764;28;96717;-78
2021/11/06 06:50:01;;;;;;;12.13;4.50;;;;;;;13.79;54.70;102179.44;4970435;28;96901;-80
2021/11/06 06:52:28;;;;;;;12.18;3.85;;;;;;;13.48;54.84;102184.69;4961994;28;97957;-79
2021/11/06 06:54:54;;;;;;;9.23;3.70;;;;;;;13.87;54.17;102186.31;4959618;28;101664;-79
2021/11/06 06:57:22;;;;;;;12.27;3.97;;;;;;;13.98;53.95;102196.66;4948112;28;96901;-78
2021/11/06 06:59:49;;;;;;;11.98;3.83;;;;;;;14.11;53.28;102195.41;4954036;28;96843;-78
2021/11/06 07:02:17;;;;;;;9.20;3.70;;;;;;;14.04;53.49;102196.50;4952287;28;98991;-79
2021/11/06 07:04:44;;;;;;;23.02;4.95;;;;;;;13.95;53.50;102192.31;4959387;28;101168;-81
2021/11/06 07:07:11;;;;;;;12.63;4.30;;;;;;;14.14;53.22;102191.81;4953052;28;97022;-79
2021/11/06 07:09:38;;;;;;;12.07;3.72;;;;;;;14.12;53.02;102189.19;4957315;28;98130;-79
2021/11/06 07:12:06;;;;;;;12.70;4.60;;;;;;;13.88;53.87;102185.41;4947665;28;99071;-80
2021/11/06 07:14:34;;;;;;;11.27;4.82;;;;;;;14.00;53.81;102193.97;4956315;28;99034;-79
2021/11/06 07:17:01;;;;;;;11.18;3.97;;;;;;;14.25;52.66;102190.59;4948883;28;97703;-79
2021/11/06 07:19:28;;;;;;;11.82;4.45;;;;;;;14.35;52.84;102202.72;4954167;28;97565;-79
2021/11/06 07:21:54;;;;;;;10.55;4.25;;;;;;;14.32;52.80;102196.59;4950098;28;99641;-79
2021/11/06 07:24:21;;;;;;;13.93;5.20;;;;;;;14.36;52.71;102198.28;4955814;28;99193;-80
2021/11/06 07:26:48;;;;;;;10.88;4.30;;;;;;;14.30;52.78;102202.00;4956379;28;99548;-80
2021/11/06 07:29:15;;;;;;;11.82;4.18;;;;;;;14.43;52.30;102199.88;4960320;28;97241;-79
2021/11/06 07:31:43;;;;;;;13.65;4.32;;;;;;;14.52;51.89;102193.41;4961411;28;99156;-80
2021/11/06 07:34:09;;;;;;;11.60;4.30;;;;;;;14.25;51.81;102195.03;4953342;28;99595;-78
2021/11/06 07:36:36;;;;;;;12.75;4.43;;;;;;;14.13;52.47;102200.69;4956101;28;97504;-80
2021/11/06 07:39:03;;;;;;;14.57;5.18;;;;;;;14.54;52.07;102199.56;4962403;28;98173;-79
2021/11/06 07:41:29;;;;;;;8.73;4.30;;;;;;;14.61;51.83;102198.47;4959643;28;98597;-81
2021/11/06 07:43:56;;;;;;;10.40;4.22;;;;;;;14.18;52.38;102201.44;4967010;28;98039;-78
2021/11/06 07:46:24;;;;;;;11.48;4.35;;;;;;;14.19;52.45;102205.84;4962959;28;97338;-85
2021/11/06 07:48:52;;;;;;;13.75;4.15;;;;;;;14.11;52.45;102218.50;4975550;28;97339;-84
2021/11/06 07:51:19;;;;;;;8.80;4.40;;;;;;;14.03;53.15;102209.84;4956938;28;100486;-80
2021/11/06 07:53:46;;;;;;;10.52;4.40;;;;;;;14.13;52.69;102211.31;4956100;28;97706;-80
2021/11/06 07:56:13;;;;;;;15.80;4.65;;;;;;;14.15;52.77;102217.47;4957729;28;96824;-80
2021/11/06 07:58:40;;;;;;;21.70;4.60;;;;;;;13.86;52.87;102212.91;4950825;28;97194;-80
2021/11/06 08:01:06;;;;;;;11.30;4.60;;;;;;;13.85;53.26;102217.34;4957509;28;98165;-80
2021/11/06 08:03:33;;;;;;;8.57;4.60;;;;;;;14.05;52.66;102206.19;4959486;28;100412;-82
2021/11/06 08:06:01;;;;;;;16.63;4.43;;;;;;;13.95;52.97;102215.34;4952159;28;98274;-80
2021/11/06 08:08:28;;;;;;;12.00;4.45;;;;;;;13.82;53.25;102204.16;4954247;28;97513;-79
2021/11/06 08:10:55;;;;;;;10.55;3.97;;;;;;;13.42;54.67;102201.63;4952894;28;98613;-79
2021/11/06 08:13:21;;;;;;;16.70;4.85;;;;;;;13.74;53.19;102208.81;4954489;28;101343;-80
2021/11/06 08:15:48;;;;;;;9.93;4.90;;;;;;;13.72;53.28;102213.28;4953856;28;98291;-80
2021/11/06 08:18:15;;;;;;;11.50;4.72;;;;;;;14.12;52.75;102214.88;4952853;28;98135;-80
2021/11/06 08:20:41;;;;;;;10.65;4.80;;;;;;;14.12;52.46;102209.56;4954239;28;98227;-81
2021/11/06 08:23:10;;;;;;;10.98;4.72;;;;;;;14.27;51.74;102218.00;4953369;28;98129;-82
2021/11/06 08:25:37;;;;;;;14.30;4.95;;;;;;;14.25;51.89;102217.16;4963650;28;96851;-80
2021/11/06 08:28:04;;;;;;;11.93;5.35;;;;;;;14.33;51.56;102224.94;4974220;28;96456;-81
2021/11/06 08:30:30;;;;;;;11.85;5.38;;;;;;;14.58;51.10;102218.03;4972238;28;98739;-80
2021/11/06 08:32:59;;;;;;;12.13;4.90;;;;;;;14.81;50.38;102221.84;4973873;28;96864;-80
2021/11/06 08:35:28;;;;;;;9.85;4.95;;;;;;;14.84;50.27;102232.38;4973854;28;96130;-79
2021/11/06 08:37:56;;;;;;;11.30;5.15;;;;;;;14.71;50.21;102223.88;4973547;28;96730;-79
2021/11/06 08:40:25;;;;;;;12.32;5.05;;;;;;;14.43;50.64;102234.47;4973248;28;97786;-78
2021/11/06 08:42:54;;;;;;;10.35;4.75;;;;;;;14.97;49.81;102229.31;4971469;28;98100;-79
2021/11/06 08:45:23;;;;;;;9.52;5.03;;;;;;;14.55;50.65;102217.28;4970899;28;97156;-81
2021/11/06 08:47:51;;;;;;;10.50;5.00;;;;;;;14.94;50.32;102229.41;4970374;28;97346;-83
2021/11/06 08:50:21;;;;;;;11.43;5.05;;;;;;;14.86;49.74;102225.22;4961169;28;97991;-83
2021/11/06 08:52:52;;;;;;;10.00;5.05;;;;;;;14.85;50.06;102232.34;4956946;28;100740;-79
2021/11/06 08:55:19;;;;;;;11.88;4.68;;;;;;;14.00;50.89;102220.53;4954996;28;97188;-84
2021/11/06 08:57:50;;;;;;;10.52;4.78;;;;;;;14.68;50.61;102231.97;4960369;28;97543;-89
2021/11/06 09:00:32;;;;;;;15.57;5.75;;;;;;;14.66;50.43;102216.03;4973900;28;100016;-85
2021/11/06 09:03:04;;;;;;;11.45;4.45;;;;;;;14.65;50.12;102216.09;4974394;28;99823;-84
2021/11/06 09:05:31;;;;;;;7.80;5.18;;;;;;;15.03;49.19;102217.63;4978535;28;96676;-87
2021/11/06 09:08:07;;;;;;;11.82;5.20;;;;;;;15.00;49.23;102218.56;4974724;28;97577;-85
2021/11/06 09:10:46;;;;;;;10.75;5.00;;;;;;;14.66;49.83;102226.69;4976284;28;98176;-90
2021/11/06 09:13:24;;;;;;;9.18;5.28;;;;;;;14.84;48.49;102224.38;4971482;28;96779;-84
2021/11/06 09:15:50;;;;;;;10.65;4.82;;;;;;;15.02;49.26;102219.41;4973808;28;97213;-85
2021/11/06 09:18:19;;;;;;;12.65;5.03;;;;;;;15.31;48.25;102214.94;4971034;28;97490;-86
2021/11/06 09:20:45;;;;;;;11.38;5.25;;;;;;;15.32;48.45;102214.03;4973741;28;97086;-85
2021/11/06 09:23:12;;;;;;;24.40;4.85;;;;;;;15.71;47.80;102220.75;4972926;28;97708;-86
2021/11/06 09:25:39;;;;;;;14.85;4.70;;;;;;;14.31;50.01;102224.97;4970330;28;97727;-85
2021/11/06 09:28:06;;;;;;;10.65;5.07;;;;;;;14.02;51.44;102227.56;4962266;28;97437;-87
2021/11/06 09:30:36;;;;;;;9.85;5.40;;;;;;;14.53;50.60;102211.13;4957824;28;99943;-86
2021/11/06 09:35:44;;;;;;;8.63;4.85;;;;;;;15.15;49.09;102218.13;4959066;28;96928;-87
2021/11/06 09:38:14;;;;;;;10.00;5.50;;;;;;;15.41;48.42;102219.06;4962564;28;98142;-86
2021/11/06 09:40:45;;;;;;;13.48;5.18;;;;;;;15.45;47.77;102221.56;4968718;28;98395;-85
2021/11/06 09:43:21;;;;;;;;;;;;;;;;;;;;;
2021/11/06 09:46:03;;;;;;;10.15;5.03;;;;;;;15.84;46.91;102227.41;4964819;28;118180;-88
2021/11/06 09:48:32;;;;;;;10.20;4.50;;;;;;;14.97;48.66;102220.44;4970053;28;96773;-83
2021/11/06 09:51:04;;;;;;;7.55;4.22;;;;;;;15.33;48.04;102223.75;4957109;28;100819;-85
2021/11/06 09:53:36;;;;;;;11.15;4.45;;;;;;;15.24;47.93;102211.59;4955607;28;100274;-85
2021/11/06 09:56:03;;;;;;;9.80;4.55;;;;;;;14.85;48.99;102215.50;4957841;28;96939;-85
2021/11/06 09:58:29;;;;;;;7.72;4.15;;;;;;;14.64;48.95;102207.22;4956122;28;98658;-84
2021/11/06 10:00:58;;;;;;;8.70;3.90;;;;;;;15.48;48.73;102210.84;4954080;28;101946;-82
2021/11/06 10:03:24;;;;;;;9.10;4.50;;;;;;;15.74;47.71;102211.78;4955445;28;99618;-82
2021/11/06 10:05:52;;;;;;;13.52;4.55;;;;;;;15.95;46.94;102219.91;4951984;28;97350;-83
2021/11/06 10:08:20;;;;;;;8.40;4.38;;;;;;;15.98;46.84;102210.94;4951522;28;98001;-82
2021/11/06 10:10:48;;;;;;;10.60;4.43;;;;;;;16.19;46.69;102217.31;4952574;28;97503;-80
2021/11/06 10:13:15;;;;;;;10.82;3.70;;;;;;;16.38;46.50;102213.06;4950959;28;98809;-82
2021/11/06 10:15:44;;;;;;;6.47;3.33;;;;;;;16.00;47.00;102209.09;4953567;28;98318;-82
2021/11/06 10:18:19;;;;;;;12.05;4.10;;;;;;;16.06;47.11;102211.56;4951350;28;98026;-84
2021/11/06 10:20:49;;;;;;;8.45;3.03;;;;;;;16.12;46.68;102216.66;4950793;28;99459;-83
2021/11/06 10:23:16;;;;;;;10.20;3.88;;;;;;;16.28;46.57;102201.84;4951280;28;100171;-83
2021/11/06 10:25:44;;;;;;;8.90;3.30;;;;;;;16.43;46.19;102204.88;4968196;28;97215;-88
2021/11/06 10:28:13;;;;;;;8.88;3.42;;;;;;;16.21;46.66;102219.00;4948829;28;98336;-82
2021/11/06 10:30:42;;;;;;;7.20;3.10;;;;;;;16.31;46.40;102207.09;4948460;28;99451;-82
2021/11/06 10:33:12;;;;;;;6.18;3.90;;;;;;;16.39;46.24;102204.13;4946972;28;98960;-81
2021/11/06 10:35:42;;;;;;;9.18;4.00;;;;;;;16.47;45.43;102206.53;4948110;28;97391;-78
2021/11/06 10:38:12;;;;;;;7.78;4.00;;;;;;;15.29;48.45;102209.69;4946807;28;98649;-86
2021/11/06 10:40:42;;;;;;;10.93;4.28;;;;;;;15.75;48.06;102203.72;4944506;28;98629;-84
2021/11/06 10:43:10;;;;;;;7.20;3.70;;;;;;;16.27;46.74;102202.78;4947324;28;97761;-80
2021/11/06 10:45:42;;;;;;;7.15;3.45;;;;;;;16.47;45.98;102196.72;4946652;28;98121;-82
2021/11/06 10:48:12;;;;;;;7.47;3.45;;;;;;;16.42;45.66;102197.81;4942793;28;97260;-82
2021/11/06 10:50:57;;;;;;;8.65;3.42;;;;;;;16.47;46.12;102195.84;4945168;28;98616;-81
2021/11/06 10:53:39;;;;;;;10.93;4.00;;;;;;;16.65;45.89;102195.19;4962989;28;98069;-85
2021/11/06 10:56:21;;;;;;;6.47;3.25;;;;;;;16.37;46.56;102187.31;4955966;28;96718;-85
2021/11/06 10:58:52;;;;;;;11.50;3.15;;;;;;;16.42;46.71;102193.34;4956849;28;97124;-82
2021/11/06 11:01:22;;;;;;;6.25;3.63;;;;;;;16.03;47.19;102176.97;4959368;28;99282;-86
2021/11/06 11:03:51;;;;;;;5.53;3.00;;;;;;;16.32;46.53;102183.94;4957401;28;99536;-85
2021/11/06 11:06:28;;;;;;;5.53;3.00;;;;;;;16.05;47.76;102180.47;4955116;28;96824;-83
2021/11/06 11:08:55;;;;;;;6.60;2.90;;;;;;;15.95;47.78;102179.03;4959439;28;96870;-88
2021/11/06 11:11:25;;;;;;;9.45;2.80;;;;;;;16.00;47.54;102187.78;4961494;28;98639;-84
2021/11/06 11:13:53;;;;;;;6.25;3.00;;;;;;;16.14;47.70;102190.81;4960049;28;98920;-81
2021/11/06 11:16:21;;;;;;;7.03;3.22;;;;;;;15.86;48.10;102184.72;4955549;28;96828;-81
2021/11/06 11:18:49;;;;;;;8.40;3.33;;;;;;;16.08;47.75;102179.50;4956457;28;96877;-80
2021/11/06 11:21:20;;;;;;;5.28;3.03;;;;;;;16.28;47.30;102177.84;4961459;28;99134;-84
2021/11/06 11:23:49;;;;;;;5.15;2.78;;;;;;;16.20;47.18;102184.41;4964746;28;99384;-85
2021/11/06 11:26:17;;;;;;;4.47;2.63;;;;;;;15.53;48.92;102181.41;4956969;28;96994;-87